x

Halibut Bank (46146) Wave Buoy

4:00pm - Mon 15th Sep 2014 All times are PDT. -7 hours from GMT.

  • Sig Wave height 0.3ft
  • Peak Period 4s
  • Wind
  • Sea Temp 65°f
  • Air Temp 59°f
  • Sea Pressure 1010mb
  • Halibut Bank
  • Halibut Bank

More Historic Weather Station data

Upgrade to MSW Pro to gain access to the past 30 days of data for over 8000 Wavebouys and Weather Stations around the globe.

Join Pro

Comparision Forecast

View Surf forecast
   
Mon 09/15 4:00pm 0.3ft 4s  -  2 mph 1010mb 65f 59f
3:00pm 0.3ft 4s 2
mph
1010.5mb 66f 58f
2:00pm 0.3ft 5s 2
mph
1011.1mb 65f 57f
1:00pm 0.3ft 6s 4
mph
1011.7mb 64f 57f
12:00pm 0.3ft 4s 2
mph
1012mb 64f 56f
11:00am 0.3ft 3s 2
mph
1012.3mb 64f 56f
10:00am 0.3ft 6s  -  mph 1012.5mb 63f 58f
9:00am 0.3ft 2s  -  2 mph 1012.5mb 63f 56f
8:00am 0.3ft 6s 4
mph
1012.6mb 63f 55f
7:00am 0.3ft 3s 2 4 mph 1012.4mb 63f 55f
6:00am 0.3ft 5s 4
mph
1012.4mb 63f 56f
5:00am 0.3ft 4s 4
mph
1012.2mb 63f 56f
4:00am 0.3ft 3s 2 4 mph 1012.2mb 63f 56f
3:00am 0.3ft 3s 4 7 mph 1012.1mb 63f 56f
2:00am 0.3ft 4s 2
mph
1012.1mb 63f 56f
1:00am 0.3ft 2s  -  mph 1011.8mb 63f 56f
12:00am 0.3ft 4s 4
mph
1011.5mb 63f 57f
Sun 09/14 11:00pm 0.3ft 6s 4
mph
1011.1mb 63f 58f
10:00pm 0.3ft 4s 4
mph
1010.9mb 63f 58f
9:00pm 0.3ft 6s 2
mph
1010.9mb 63f 58f
8:00pm 0.3ft 2s  -  2 mph 1011mb 63f 58f
7:00pm 0.3ft 7s 2
mph
1010.8mb 64f 59f
6:00pm 0.3ft 6s  -  2 mph 1011.2mb 64f 61f
5:00pm 0.3ft 3s 4 7 mph 1011.7mb 65f 59f
4:00pm 0.3ft 2s 4 7 mph 1012.1mb 64f 59f
3:00pm 0.3ft 3s 7
mph
1012.5mb 64f 58f
2:00pm 0.3ft 2s 4 7 mph 1013mb 64f 58f
1:00pm 0.3ft 2s 4 7 mph 1013.4mb 64f 58f
12:00pm 0.3ft 2s 7 9 mph 1013.6mb 63f 57f
11:00am 0.3ft 3s 9 11 mph 1013.9mb 63f 56f
10:00am 0.3ft 3s 7 9 mph 1014mb 62f 56f
9:00am 0.3ft 2s 4
mph
1014mb 62f 56f
8:00am 0.7ft 2s 4
mph
1013.8mb 62f 55f
7:00am 0.7ft 3s 4 7 mph 1013.4mb 62f 55f
6:00am 0.3ft 3s 7 9 mph 1013.4mb 62f 56f
5:00am 0.3ft 2s 7 9 mph 1013.3mb 62f 56f
4:00am 0.3ft 14s 9
mph
1013.3mb 62f 57f
3:00am 0.3ft 3s 4 7 mph 1013mb 62f 57f
2:00am 0.3ft 2s 7 9 mph 1012.5mb 63f 58f
1:00am 0.3ft 2s 7 9 mph 1012.2mb 63f 58f
12:00am 0.3ft 5s 7 9 mph 1011.8mb 63f 58f
Sat 09/13 11:00pm 0.3ft 5s 7
mph
1011.5mb 63f 58f
10:00pm 0.3ft 4s 7 9 mph 1011.4mb 63f 60f
9:00pm 0.3ft 4s 7
mph
1011.1mb 63f 59f
8:00pm 0.3ft 5s 4 7 mph 1011.1mb 64f 59f
7:00pm 0.3ft 7s 4
mph
1011.3mb 64f 59f
6:00pm 0.7ft 7s 4 7 mph 1011.9mb 64f 60f
5:00pm 0.3ft 2s 7
mph
1012.6mb 64f 60f
4:00pm 0.3ft 3s 4 7 mph 1013.1mb 64f 59f
3:00pm 0.3ft 2s 7
mph
1013.6mb 64f 58f
2:00pm 0.3ft 2s 7
mph
1014.3mb 63f 58f
1:00pm 0.7ft 3s 9
mph
1014.9mb 63f 57f
12:00pm 0.7ft 3s 9 11 mph 1015.3mb 63f 56f
11:00am 0.7ft 3s 11
mph
1015.7mb 63f 56f
10:00am 0.7ft 3s 11 13 mph 1015.9mb 62f 56f
9:00am 0.7ft 3s 11 13 mph 1016mb 62f 56f
8:00am 0.7ft 3s 11
mph
1016.1mb 62f 56f
7:00am 0.7ft 3s 11 13 mph 1016mb 62f 56f
6:00am 0.7ft 2s 11
mph
1015.9mb 62f 56f
5:00am 0.7ft 2s 9 11 mph 1016.1mb 62f 56f
4:00am 0.3ft 2s 13
mph
1016.1mb 62f 57f
3:00am 0.3ft 2s 11 13 mph 1016.1mb 62f 57f
2:00am 0.3ft 2s 7 9 mph 1016.3mb 62f 57f
1:00am 0.3ft 2s 11
mph
1016mb 62f 59f
12:00am 0.3ft 2s 11 13 mph 1015.7mb 62f 59f
Fri 09/12 11:00pm 0.3ft 5s 11
mph
1015.6mb 62f 61f
10:00pm 0.3ft 2s 7 9 mph 1015.7mb 62f 60f
9:00pm 0.3ft 2s 9
mph
1015.5mb 62f 60f
8:00pm 0.3ft 3s 9 11 mph 1015.1mb 62f 60f
7:00pm 0.7ft 2s 9 11 mph 1015.1mb 63f 60f
6:00pm 0.7ft 3s 7 9 mph 1015.6mb 63f 60f
5:00pm 1ft 3s 9 11 mph 1016.1mb 63f 59f
4:00pm 1ft 3s 11 13 mph 1016.6mb 63f 59f
3:00pm 1ft 3s 11 13 mph 1017.3mb 63f 58f
2:00pm 1ft 3s 13 16 mph 1017.9mb 62f 58f
1:00pm 1ft 3s 11 13 mph 1018.5mb 62f 57f
12:00pm 1ft 3s 11 13 mph 1018.9mb 62f 56f
11:00am 0.7ft 3s 11 13 mph 1019.4mb 62f 55f
10:00am 0.7ft 3s 9 11 mph 1019.7mb 62f 55f
9:00am 0.7ft 3s 4
mph
1019.6mb 62f 55f
8:00am 1ft 3s 7 9 mph 1019.6mb 62f 54f
7:00am 1ft 3s 7
mph
1019.8mb 62f 54f
6:00am 1ft 7s 9 11 mph 1020mb 62f 55f
5:00am 0.7ft 3s 9 11 mph 1020mb 63f 56f
4:00am 0.7ft 3s 9 11 mph 1020.6mb 62f 56f
3:00am 0.7ft 2s 9
mph
1020.8mb 62f 56f
2:00am 0.7ft 2s 9 11 mph 1021mb 63f 56f